sensor_id;sensor_type;location;lat;lon;timestamp;P1;durP1;ratioP1;P2;durP2;ratioP2
60243;SDS011;46106;51.468;5.814;2023-04-01T00:00:26;7.32;;;1.65;;
60243;SDS011;46106;51.468;5.814;2023-04-01T00:02:52;10.50;;;1.90;;
60243;SDS011;46106;51.468;5.814;2023-04-01T00:05:17;9.55;;;1.55;;
60243;SDS011;46106;51.468;5.814;2023-04-01T00:07:43;4.35;;;1.40;;
60243;SDS011;46106;51.468;5.814;2023-04-01T00:10:09;11.82;;;1.70;;
60243;SDS011;46106;51.468;5.814;2023-04-01T00:12:39;6.03;;;1.35;;
60243;SDS011;46106;51.468;5.814;2023-04-01T00:15:06;12.85;;;1.88;;
60243;SDS011;46106;51.468;5.814;2023-04-01T00:17:33;9.27;;;1.77;;
60243;SDS011;46106;51.468;5.814;2023-04-01T00:19:59;13.13;;;2.40;;
60243;SDS011;46106;51.468;5.814;2023-04-01T00:22:24;7.00;;;1.73;;
60243;SDS011;46106;51.468;5.814;2023-04-01T00:24:51;8.85;;;1.45;;
60243;SDS011;46106;51.468;5.814;2023-04-01T00:27:16;12.27;;;2.40;;
60243;SDS011;46106;51.468;5.814;2023-04-01T00:29:43;7.10;;;1.77;;
60243;SDS011;46106;51.468;5.814;2023-04-01T00:32:08;9.15;;;2.28;;
60243;SDS011;46106;51.468;5.814;2023-04-01T00:34:34;5.22;;;1.60;;
60243;SDS011;46106;51.468;5.814;2023-04-01T00:37:03;4.93;;;1.52;;
60243;SDS011;46106;51.468;5.814;2023-04-01T00:39:29;8.20;;;1.67;;
60243;SDS011;46106;51.468;5.814;2023-04-01T00:41:56;7.60;;;2.28;;
60243;SDS011;46106;51.468;5.814;2023-04-01T00:44:23;8.45;;;2.10;;
60243;SDS011;46106;51.468;5.814;2023-04-01T00:46:50;13.60;;;1.50;;
60243;SDS011;46106;51.468;5.814;2023-04-01T00:49:18;13.10;;;2.08;;
60243;SDS011;46106;51.468;5.814;2023-04-01T00:51:46;6.47;;;1.52;;
60243;SDS011;46106;51.468;5.814;2023-04-01T00:54:15;6.57;;;2.03;;
60243;SDS011;46106;51.468;5.814;2023-04-01T00:56:48;9.50;;;1.67;;
60243;SDS011;46106;51.468;5.814;2023-04-01T00:59:21;12.30;;;2.05;;
60243;SDS011;46106;51.468;5.814;2023-04-01T01:01:52;6.35;;;2.63;;
60243;SDS011;46106;51.468;5.814;2023-04-01T01:04:21;6.88;;;1.10;;
60243;SDS011;46106;51.468;5.814;2023-04-01T01:37:37;6.00;;;1.83;;
60243;SDS011;46106;51.468;5.814;2023-04-01T01:40:06;5.38;;;1.52;;
60243;SDS011;46106;51.468;5.814;2023-04-01T01:42:40;5.38;;;1.30;;
60243;SDS011;46106;51.468;5.814;2023-04-01T01:45:14;5.30;;;1.60;;
60243;SDS011;46106;51.468;5.814;2023-04-01T01:47:43;7.80;;;1.30;;
60243;SDS011;46106;51.468;5.814;2023-04-01T01:50:10;6.50;;;1.40;;
60243;SDS011;46106;51.468;5.814;2023-04-01T01:52:40;4.88;;;1.50;;
60243;SDS011;46106;51.468;5.814;2023-04-01T01:55:22;7.30;;;1.75;;
60243;SDS011;46106;51.468;5.814;2023-04-01T01:57:54;5.60;;;1.88;;
60243;SDS011;46106;51.468;5.814;2023-04-01T02:00:23;7.78;;;1.60;;
60243;SDS011;46106;51.468;5.814;2023-04-01T02:02:49;7.05;;;2.22;;
60243;SDS011;46106;51.468;5.814;2023-04-01T02:05:20;7.10;;;1.90;;
60243;SDS011;46106;51.468;5.814;2023-04-01T02:07:55;5.82;;;2.05;;
60243;SDS011;46106;51.468;5.814;2023-04-01T02:10:28;2.10;;;1.83;;
60243;SDS011;46106;51.468;5.814;2023-04-01T02:13:01;2.00;;;1.48;;
60243;SDS011;46106;51.468;5.814;2023-04-01T02:15:31;3.15;;;1.85;;
60243;SDS011;46106;51.468;5.814;2023-04-01T02:18:01;2.40;;;1.52;;
60243;SDS011;46106;51.468;5.814;2023-04-01T02:20:28;5.95;;;2.42;;
60243;SDS011;46106;51.468;5.814;2023-04-01T02:22:55;3.90;;;2.15;;
60243;SDS011;46106;51.468;5.814;2023-04-01T02:25:29;8.63;;;2.70;;
60243;SDS011;46106;51.468;5.814;2023-04-01T02:27:58;3.40;;;2.40;;
60243;SDS011;46106;51.468;5.814;2023-04-01T02:30:28;3.50;;;2.40;;
60243;SDS011;46106;51.468;5.814;2023-04-01T02:32:57;6.55;;;2.78;;
60243;SDS011;46106;51.468;5.814;2023-04-01T02:35:23;8.88;;;3.10;;
60243;SDS011;46106;51.468;5.814;2023-04-01T02:37:50;4.22;;;2.42;;
60243;SDS011;46106;51.468;5.814;2023-04-01T02:40:18;9.02;;;3.20;;
60243;SDS011;46106;51.468;5.814;2023-04-01T02:42:44;7.93;;;3.28;;
60243;SDS011;46106;51.468;5.814;2023-04-01T02:45:11;8.35;;;3.67;;
60243;SDS011;46106;51.468;5.814;2023-04-01T02:47:37;8.32;;;4.25;;
60243;SDS011;46106;51.468;5.814;2023-04-01T02:50:03;7.57;;;3.92;;
60243;SDS011;46106;51.468;5.814;2023-04-01T02:52:29;6.88;;;3.78;;
60243;SDS011;46106;51.468;5.814;2023-04-01T02:54:55;9.18;;;4.15;;
60243;SDS011;46106;51.468;5.814;2023-04-01T02:57:22;10.23;;;4.03;;
60243;SDS011;46106;51.468;5.814;2023-04-01T02:59:47;8.95;;;4.10;;
60243;SDS011;46106;51.468;5.814;2023-04-01T03:02:13;6.75;;;4.07;;
60243;SDS011;46106;51.468;5.814;2023-04-01T03:04:39;10.05;;;4.43;;
60243;SDS011;46106;51.468;5.814;2023-04-01T03:07:05;7.38;;;4.20;;
60243;SDS011;46106;51.468;5.814;2023-04-01T03:09:30;9.25;;;3.75;;
60243;SDS011;46106;51.468;5.814;2023-04-01T03:11:56;14.23;;;4.82;;
60243;SDS011;46106;51.468;5.814;2023-04-01T03:14:21;7.82;;;4.07;;
60243;SDS011;46106;51.468;5.814;2023-04-01T03:16:47;11.98;;;3.95;;
60243;SDS011;46106;51.468;5.814;2023-04-01T03:19:12;7.30;;;3.83;;
60243;SDS011;46106;51.468;5.814;2023-04-01T03:21:38;8.02;;;3.95;;
60243;SDS011;46106;51.468;5.814;2023-04-01T03:24:03;7.32;;;3.75;;
60243;SDS011;46106;51.468;5.814;2023-04-01T03:26:29;13.85;;;4.57;;
60243;SDS011;46106;51.468;5.814;2023-04-01T03:28:55;15.45;;;5.97;;
60243;SDS011;46106;51.468;5.814;2023-04-01T03:31:21;10.00;;;5.78;;
60243;SDS011;46106;51.468;5.814;2023-04-01T03:33:47;13.25;;;7.05;;
60243;SDS011;46106;51.468;5.814;2023-04-01T03:36:12;14.45;;;8.10;;
60243;SDS011;46106;51.468;5.814;2023-04-01T03:38:39;20.00;;;9.77;;
60243;SDS011;46106;51.468;5.814;2023-04-01T03:41:06;20.45;;;8.75;;
60243;SDS011;46106;51.468;5.814;2023-04-01T03:43:32;17.83;;;9.00;;
60243;SDS011;46106;51.468;5.814;2023-04-01T03:45:58;21.75;;;9.18;;
60243;SDS011;46106;51.468;5.814;2023-04-01T03:48:24;21.40;;;9.15;;
60243;SDS011;46106;51.468;5.814;2023-04-01T03:50:50;18.77;;;10.00;;
60243;SDS011;46106;51.468;5.814;2023-04-01T03:53:16;24.02;;;10.50;;
60243;SDS011;46106;51.468;5.814;2023-04-01T03:55:41;21.83;;;10.15;;
60243;SDS011;46106;51.468;5.814;2023-04-01T03:58:07;23.98;;;9.75;;
60243;SDS011;46106;51.468;5.814;2023-04-01T04:00:33;17.45;;;7.60;;
60243;SDS011;46106;51.468;5.814;2023-04-01T04:02:58;18.05;;;8.95;;
60243;SDS011;46106;51.468;5.814;2023-04-01T04:05:25;17.05;;;8.73;;
60243;SDS011;46106;51.468;5.814;2023-04-01T04:07:51;16.63;;;9.48;;
60243;SDS011;46106;51.468;5.814;2023-04-01T04:10:17;17.17;;;8.00;;
60243;SDS011;46106;51.468;5.814;2023-04-01T04:12:43;20.88;;;9.32;;
60243;SDS011;46106;51.468;5.814;2023-04-01T04:15:09;17.85;;;9.02;;
60243;SDS011;46106;51.468;5.814;2023-04-01T04:17:35;18.63;;;8.80;;
60243;SDS011;46106;51.468;5.814;2023-04-01T04:20:01;16.65;;;9.20;;
60243;SDS011;46106;51.468;5.814;2023-04-01T04:22:27;20.30;;;9.85;;
60243;SDS011;46106;51.468;5.814;2023-04-01T04:24:52;14.77;;;9.20;;
60243;SDS011;46106;51.468;5.814;2023-04-01T04:27:18;19.17;;;9.45;;
60243;SDS011;46106;51.468;5.814;2023-04-01T04:29:43;18.30;;;9.07;;
60243;SDS011;46106;51.468;5.814;2023-04-01T04:32:09;18.50;;;8.77;;
60243;SDS011;46106;51.468;5.814;2023-04-01T04:34:34;19.25;;;9.68;;
60243;SDS011;46106;51.468;5.814;2023-04-01T04:37:03;19.58;;;9.18;;
60243;SDS011;46106;51.468;5.814;2023-04-01T04:39:28;17.10;;;9.15;;
60243;SDS011;46106;51.468;5.814;2023-04-01T04:41:54;17.52;;;10.07;;
60243;SDS011;46106;51.468;5.814;2023-04-01T04:44:20;17.15;;;9.63;;
60243;SDS011;46106;51.468;5.814;2023-04-01T04:46:45;20.55;;;10.70;;
60243;SDS011;46106;51.468;5.814;2023-04-01T04:49:10;22.55;;;10.48;;
60243;SDS011;46106;51.468;5.814;2023-04-01T04:51:39;23.63;;;11.00;;
60243;SDS011;46106;51.468;5.814;2023-04-01T04:54:05;19.98;;;10.68;;
60243;SDS011;46106;51.468;5.814;2023-04-01T04:56:32;19.58;;;9.98;;
60243;SDS011;46106;51.468;5.814;2023-04-01T04:58:57;20.00;;;9.85;;
60243;SDS011;46106;51.468;5.814;2023-04-01T05:01:23;19.80;;;9.60;;
60243;SDS011;46106;51.468;5.814;2023-04-01T05:03:49;22.27;;;9.05;;
60243;SDS011;46106;51.468;5.814;2023-04-01T05:06:15;20.95;;;9.05;;
60243;SDS011;46106;51.468;5.814;2023-04-01T05:08:42;19.45;;;10.00;;
60243;SDS011;46106;51.468;5.814;2023-04-01T05:11:12;21.15;;;10.48;;
60243;SDS011;46106;51.468;5.814;2023-04-01T05:13:40;22.15;;;10.10;;
60243;SDS011;46106;51.468;5.814;2023-04-01T05:16:10;22.45;;;10.07;;
60243;SDS011;46106;51.468;5.814;2023-04-01T05:18:37;23.00;;;9.60;;
60243;SDS011;46106;51.468;5.814;2023-04-01T05:21:03;21.45;;;10.35;;
60243;SDS011;46106;51.468;5.814;2023-04-01T05:23:30;22.05;;;10.30;;
60243;SDS011;46106;51.468;5.814;2023-04-01T05:25:56;21.15;;;9.55;;
60243;SDS011;46106;51.468;5.814;2023-04-01T05:28:22;21.15;;;10.32;;
60243;SDS011;46106;51.468;5.814;2023-04-01T05:30:48;18.98;;;9.45;;
60243;SDS011;46106;51.468;5.814;2023-04-01T05:33:13;20.40;;;9.38;;
60243;SDS011;46106;51.468;5.814;2023-04-01T05:35:39;22.90;;;9.23;;
60243;SDS011;46106;51.468;5.814;2023-04-01T05:38:05;21.30;;;9.45;;
60243;SDS011;46106;51.468;5.814;2023-04-01T05:40:31;18.50;;;8.65;;
60243;SDS011;46106;51.468;5.814;2023-04-01T05:42:57;22.13;;;8.90;;
60243;SDS011;46106;51.468;5.814;2023-04-01T05:45:24;19.77;;;9.27;;
60243;SDS011;46106;51.468;5.814;2023-04-01T05:47:49;18.88;;;8.85;;
60243;SDS011;46106;51.468;5.814;2023-04-01T05:50:15;15.40;;;7.65;;
60243;SDS011;46106;51.468;5.814;2023-04-01T05:52:41;14.68;;;7.35;;
60243;SDS011;46106;51.468;5.814;2023-04-01T05:55:10;19.67;;;8.35;;
60243;SDS011;46106;51.468;5.814;2023-04-01T05:57:35;15.35;;;7.72;;
60243;SDS011;46106;51.468;5.814;2023-04-01T06:00:01;12.57;;;6.75;;
60243;SDS011;46106;51.468;5.814;2023-04-01T06:02:26;20.17;;;7.70;;
60243;SDS011;46106;51.468;5.814;2023-04-01T06:05:36;15.57;;;6.75;;
60243;SDS011;46106;51.468;5.814;2023-04-01T06:07:45;11.93;;;5.97;;
60243;SDS011;46106;51.468;5.814;2023-04-01T06:10:12;15.93;;;7.38;;
60243;SDS011;46106;51.468;5.814;2023-04-01T06:12:44;18.33;;;7.13;;
60243;SDS011;46106;51.468;5.814;2023-04-01T06:15:25;16.33;;;6.47;;
60243;SDS011;46106;51.468;5.814;2023-04-01T06:21:27;13.68;;;5.88;;
60243;SDS011;46106;51.468;5.814;2023-04-01T06:24:13;15.38;;;7.00;;
60243;SDS011;46106;51.468;5.814;2023-04-01T06:26:55;14.50;;;6.25;;
60243;SDS011;46106;51.468;5.814;2023-04-01T06:35:35;16.63;;;6.30;;
60243;SDS011;46106;51.468;5.814;2023-04-01T06:46:20;21.35;;;8.38;;
60243;SDS011;46106;51.468;5.814;2023-04-01T06:52:12;24.20;;;8.88;;
60243;SDS011;46106;51.468;5.814;2023-04-01T06:54:31;24.95;;;8.45;;
60243;SDS011;46106;51.468;5.814;2023-04-01T06:59:43;21.30;;;7.95;;
60243;SDS011;46106;51.468;5.814;2023-04-01T07:04:43;28.13;;;9.18;;
60243;SDS011;46106;51.468;5.814;2023-04-01T07:10:02;25.65;;;8.85;;
60243;SDS011;46106;51.468;5.814;2023-04-01T07:14:55;24.73;;;8.88;;
60243;SDS011;46106;51.468;5.814;2023-04-01T07:17:25;25.40;;;9.55;;
60243;SDS011;46106;51.468;5.814;2023-04-01T07:20:38;30.88;;;10.98;;
60243;SDS011;46106;51.468;5.814;2023-04-01T07:22:52;31.90;;;11.13;;
60243;SDS011;46106;51.468;5.814;2023-04-01T07:25:33;36.50;;;11.68;;
60243;SDS011;46106;51.468;5.814;2023-04-01T07:28:04;42.53;;;13.77;;
60243;SDS011;46106;51.468;5.814;2023-04-01T07:30:57;39.17;;;12.75;;
60243;SDS011;46106;51.468;5.814;2023-04-01T07:36:41;43.92;;;14.30;;
60243;SDS011;46106;51.468;5.814;2023-04-01T07:39:24;51.17;;;15.18;;
60243;SDS011;46106;51.468;5.814;2023-04-01T07:42:06;64.28;;;17.63;;
60243;SDS011;46106;51.468;5.814;2023-04-01T07:47:19;58.53;;;18.55;;
60243;SDS011;46106;51.468;5.814;2023-04-01T07:53:08;68.95;;;21.48;;
60243;SDS011;46106;51.468;5.814;2023-04-01T07:55:51;67.05;;;21.48;;
60243;SDS011;46106;51.468;5.814;2023-04-01T08:04:36;79.05;;;21.17;;
60243;SDS011;46106;51.468;5.814;2023-04-01T08:07:24;64.57;;;19.52;;
60243;SDS011;46106;51.468;5.814;2023-04-01T08:12:27;70.40;;;20.10;;
60243;SDS011;46106;51.468;5.814;2023-04-01T08:14:59;69.32;;;21.05;;
60243;SDS011;46106;51.468;5.814;2023-04-01T08:17:36;71.75;;;21.70;;
60243;SDS011;46106;51.468;5.814;2023-04-01T08:20:13;82.33;;;23.30;;
60243;SDS011;46106;51.468;5.814;2023-04-01T08:22:51;82.43;;;23.55;;
60243;SDS011;46106;51.468;5.814;2023-04-01T08:25:24;80.68;;;23.45;;
60243;SDS011;46106;51.468;5.814;2023-04-01T08:27:57;76.90;;;24.20;;
60243;SDS011;46106;51.468;5.814;2023-04-01T08:30:42;67.20;;;23.05;;
60243;SDS011;46106;51.468;5.814;2023-04-01T08:33:17;67.00;;;22.30;;
60243;SDS011;46106;51.468;5.814;2023-04-01T08:38:40;65.70;;;22.58;;
60243;SDS011;46106;51.468;5.814;2023-04-01T09:00:33;53.53;;;19.50;;
60243;SDS011;46106;51.468;5.814;2023-04-01T09:14:04;52.65;;;19.42;;
60243;SDS011;46106;51.468;5.814;2023-04-01T09:19:43;52.53;;;19.73;;
60243;SDS011;46106;51.468;5.814;2023-04-01T09:22:24;42.20;;;19.10;;
60243;SDS011;46106;51.468;5.814;2023-04-01T09:27:26;40.05;;;18.40;;
60243;SDS011;46106;51.468;5.814;2023-04-01T09:33:16;28.60;;;15.35;;
60243;SDS011;46106;51.468;5.814;2023-04-01T09:36:11;33.28;;;15.65;;
60243;SDS011;46106;51.468;5.814;2023-04-01T09:38:56;25.83;;;15.00;;
60243;SDS011;46106;51.468;5.814;2023-04-01T09:49:49;29.52;;;15.88;;
60243;SDS011;46106;51.468;5.814;2023-04-01T10:09:04;19.25;;;10.70;;
60243;SDS011;46106;51.468;5.814;2023-04-01T10:26:24;12.27;;;8.02;;
60243;SDS011;46106;51.468;5.814;2023-04-01T10:29:31;10.70;;;7.10;;
60243;SDS011;46106;51.468;5.814;2023-04-01T10:48:46;12.88;;;8.98;;
60243;SDS011;46106;51.468;5.814;2023-04-01T11:17:07;22.48;;;11.73;;
60243;SDS011;46106;51.468;5.814;2023-04-01T11:19:56;21.35;;;11.35;;
60243;SDS011;46106;51.468;5.814;2023-04-01T11:33:43;17.52;;;11.95;;
60243;SDS011;46106;51.468;5.814;2023-04-01T11:44:49;18.40;;;11.40;;
60243;SDS011;46106;51.468;5.814;2023-04-01T11:52:34;22.08;;;13.25;;
60243;SDS011;46106;51.468;5.814;2023-04-01T11:55:25;15.93;;;10.65;;
60243;SDS011;46106;51.468;5.814;2023-04-01T11:58:18;19.00;;;11.50;;
60243;SDS011;46106;51.468;5.814;2023-04-01T12:06:05;18.83;;;10.75;;
60243;SDS011;46106;51.468;5.814;2023-04-01T12:12:11;20.73;;;11.50;;
60243;SDS011;46106;51.468;5.814;2023-04-01T12:23:20;15.70;;;10.35;;
60243;SDS011;46106;51.468;5.814;2023-04-01T12:26:29;14.38;;;9.23;;
60243;SDS011;46106;51.468;5.814;2023-04-01T12:31:53;14.52;;;8.60;;
60243;SDS011;46106;51.468;5.814;2023-04-01T12:34:32;13.23;;;9.40;;
60243;SDS011;46106;51.468;5.814;2023-04-01T12:37:18;13.50;;;9.02;;
60243;SDS011;46106;51.468;5.814;2023-04-01T12:39:59;12.48;;;8.13;;
60243;SDS011;46106;51.468;5.814;2023-04-01T12:42:44;11.02;;;8.10;;
60243;SDS011;46106;51.468;5.814;2023-04-01T12:48:06;12.10;;;7.05;;
60243;SDS011;46106;51.468;5.814;2023-04-01T12:53:26;11.15;;;5.93;;
60243;SDS011;46106;51.468;5.814;2023-04-01T12:55:53;7.70;;;5.68;;
60243;SDS011;46106;51.468;5.814;2023-04-01T13:10:27;7.68;;;5.40;;
60243;SDS011;46106;51.468;5.814;2023-04-01T13:21:13;7.07;;;5.75;;
60243;SDS011;46106;51.468;5.814;2023-04-01T13:24:01;9.85;;;6.82;;
60243;SDS011;46106;51.468;5.814;2023-04-01T13:40:01;12.27;;;7.90;;
60243;SDS011;46106;51.468;5.814;2023-04-01T13:42:31;12.55;;;7.88;;
60243;SDS011;46106;51.468;5.814;2023-04-01T13:45:12;9.45;;;7.65;;
60243;SDS011;46106;51.468;5.814;2023-04-01T13:56:08;13.35;;;8.40;;
60243;SDS011;46106;51.468;5.814;2023-04-01T13:58:55;13.35;;;7.57;;
60243;SDS011;46106;51.468;5.814;2023-04-01T14:09:45;17.75;;;7.85;;
60243;SDS011;46106;51.468;5.814;2023-04-01T14:51:22;13.18;;;9.73;;
60243;SDS011;46106;51.468;5.814;2023-04-01T14:59:01;14.23;;;9.32;;
60243;SDS011;46106;51.468;5.814;2023-04-01T15:12:11;18.33;;;8.93;;
60243;SDS011;46106;51.468;5.814;2023-04-01T15:23:15;11.80;;;8.18;;
60243;SDS011;46106;51.468;5.814;2023-04-01T15:28:38;14.15;;;9.10;;
60243;SDS011;46106;51.468;5.814;2023-04-01T15:36:33;12.27;;;9.13;;
60243;SDS011;46106;51.468;5.814;2023-04-01T15:39:28;10.32;;;8.77;;
60243;SDS011;46106;51.468;5.814;2023-04-01T15:42:31;13.32;;;8.85;;
60243;SDS011;46106;51.468;5.814;2023-04-01T15:45:25;13.40;;;8.38;;
60243;SDS011;46106;51.468;5.814;2023-04-01T15:59:58;11.20;;;8.73;;
60243;SDS011;46106;51.468;5.814;2023-04-01T16:11:45;12.93;;;9.75;;
60243;SDS011;46106;51.468;5.814;2023-04-01T16:19:33;13.48;;;9.70;;
60243;SDS011;46106;51.468;5.814;2023-04-01T16:22:25;14.95;;;10.45;;
60243;SDS011;46106;51.468;5.814;2023-04-01T16:25:13;12.38;;;9.95;;
60243;SDS011;46106;51.468;5.814;2023-04-01T16:27:54;13.57;;;9.65;;
60243;SDS011;46106;51.468;5.814;2023-04-01T16:30:38;14.38;;;11.18;;
60243;SDS011;46106;51.468;5.814;2023-04-01T16:33:46;16.35;;;10.82;;
60243;SDS011;46106;51.468;5.814;2023-04-01T16:36:21;16.42;;;10.23;;
60243;SDS011;46106;51.468;5.814;2023-04-01T16:41:49;16.70;;;10.82;;
60243;SDS011;46106;51.468;5.814;2023-04-01T16:44:25;17.95;;;10.80;;
60243;SDS011;46106;51.468;5.814;2023-04-01T16:46:53;14.35;;;10.75;;
60243;SDS011;46106;51.468;5.814;2023-04-01T16:49:30;16.42;;;11.13;;
60243;SDS011;46106;51.468;5.814;2023-04-01T16:54:29;17.15;;;10.65;;
60243;SDS011;46106;51.468;5.814;2023-04-01T16:57:03;17.17;;;11.32;;
60243;SDS011;46106;51.468;5.814;2023-04-01T17:10:00;13.38;;;10.07;;
60243;SDS011;46106;51.468;5.814;2023-04-01T17:12:51;16.52;;;11.13;;
60243;SDS011;46106;51.468;5.814;2023-04-01T17:18:12;16.67;;;11.00;;
60243;SDS011;46106;51.468;5.814;2023-04-01T17:35:31;22.58;;;11.82;;
60243;SDS011;46106;51.468;5.814;2023-04-01T17:47:02;15.68;;;10.25;;
60243;SDS011;46106;51.468;5.814;2023-04-01T17:52:45;17.90;;;11.55;;
60243;SDS011;46106;51.468;5.814;2023-04-01T17:58:20;17.67;;;11.55;;
60243;SDS011;46106;51.468;5.814;2023-04-01T18:00:50;17.38;;;11.13;;
60243;SDS011;46106;51.468;5.814;2023-04-01T18:20:23;17.55;;;11.32;;
60243;SDS011;46106;51.468;5.814;2023-04-01T18:23:30;19.63;;;12.32;;
60243;SDS011;46106;51.468;5.814;2023-04-01T18:26:04;18.92;;;12.25;;
60243;SDS011;46106;51.468;5.814;2023-04-01T18:28:43;14.38;;;10.23;;
60243;SDS011;46106;51.468;5.814;2023-04-01T18:31:18;13.68;;;9.02;;
60243;SDS011;46106;51.468;5.814;2023-04-01T18:39:21;7.10;;;5.60;;
60243;SDS011;46106;51.468;5.814;2023-04-01T18:41:59;8.48;;;5.82;;
60243;SDS011;46106;51.468;5.814;2023-04-01T18:50:22;6.95;;;4.70;;
60243;SDS011;46106;51.468;5.814;2023-04-01T18:56:04;9.02;;;5.85;;
60243;SDS011;46106;51.468;5.814;2023-04-01T19:01:07;8.20;;;5.75;;
60243;SDS011;46106;51.468;5.814;2023-04-01T19:03:39;7.55;;;5.72;;
60243;SDS011;46106;51.468;5.814;2023-04-01T19:20:03;8.15;;;6.50;;
60243;SDS011;46106;51.468;5.814;2023-04-01T19:40:17;8.77;;;5.80;;
60243;SDS011;46106;51.468;5.814;2023-04-01T19:45:54;12.88;;;7.40;;
60243;SDS011;46106;51.468;5.814;2023-04-01T19:51:23;8.68;;;6.50;;
60243;SDS011;46106;51.468;5.814;2023-04-01T19:56:55;11.38;;;8.00;;
60243;SDS011;46106;51.468;5.814;2023-04-01T19:59:47;13.57;;;8.35;;
60243;SDS011;46106;51.468;5.814;2023-04-01T20:05:45;15.45;;;9.82;;
60243;SDS011;46106;51.468;5.814;2023-04-01T20:08:10;13.57;;;9.85;;
60243;SDS011;46106;51.468;5.814;2023-04-01T20:16:14;16.85;;;10.93;;
60243;SDS011;46106;51.468;5.814;2023-04-01T20:21:41;13.50;;;10.27;;
60243;SDS011;46106;51.468;5.814;2023-04-01T20:26:39;14.38;;;10.00;;
60243;SDS011;46106;51.468;5.814;2023-04-01T20:34:36;13.30;;;10.27;;
60243;SDS011;46106;51.468;5.814;2023-04-01T20:45:58;14.68;;;9.85;;
60243;SDS011;46106;51.468;5.814;2023-04-01T20:48:52;13.55;;;10.52;;
60243;SDS011;46106;51.468;5.814;2023-04-01T20:51:38;11.38;;;8.48;;
60243;SDS011;46106;51.468;5.814;2023-04-01T21:05:30;11.15;;;7.85;;
60243;SDS011;46106;51.468;5.814;2023-04-01T21:13:38;10.60;;;7.78;;
60243;SDS011;46106;51.468;5.814;2023-04-01T21:22:17;8.43;;;7.25;;
60243;SDS011;46106;51.468;5.814;2023-04-01T21:36:52;7.78;;;6.57;;
60243;SDS011;46106;51.468;5.814;2023-04-01T21:42:20;6.75;;;5.50;;
60243;SDS011;46106;51.468;5.814;2023-04-01T21:50:42;9.60;;;7.93;;
60243;SDS011;46106;51.468;5.814;2023-04-01T22:06:52;6.57;;;4.85;;
60243;SDS011;46106;51.468;5.814;2023-04-01T22:23:42;9.88;;;7.97;;
60243;SDS011;46106;51.468;5.814;2023-04-01T22:29:17;11.63;;;9.27;;
60243;SDS011;46106;51.468;5.814;2023-04-01T22:51:02;6.05;;;4.88;;
60243;SDS011;46106;51.468;5.814;2023-04-01T22:56:03;4.88;;;4.32;;
60243;SDS011;46106;51.468;5.814;2023-04-01T22:58:40;7.20;;;5.60;;
60243;SDS011;46106;51.468;5.814;2023-04-01T23:01:14;7.40;;;6.03;;
60243;SDS011;46106;51.468;5.814;2023-04-01T23:03:46;9.02;;;5.97;;
60243;SDS011;46106;51.468;5.814;2023-04-01T23:06:30;6.63;;;5.47;;
60243;SDS011;46106;51.468;5.814;2023-04-01T23:09:10;7.13;;;5.93;;
60243;SDS011;46106;51.468;5.814;2023-04-01T23:16:59;5.93;;;5.32;;
60243;SDS011;46106;51.468;5.814;2023-04-01T23:20:34;5.10;;;4.63;;
60243;SDS011;46106;51.468;5.814;2023-04-01T23:22:45;5.43;;;4.93;;
60243;SDS011;46106;51.468;5.814;2023-04-01T23:27:47;5.80;;;4.65;;
60243;SDS011;46106;51.468;5.814;2023-04-01T23:35:53;6.95;;;5.28;;
60243;SDS011;46106;51.468;5.814;2023-04-01T23:38:31;7.30;;;5.15;;
60243;SDS011;46106;51.468;5.814;2023-04-01T23:40:59;6.95;;;5.93;;
60243;SDS011;46106;51.468;5.814;2023-04-01T23:43:29;8.95;;;5.38;;
60243;SDS011;46106;51.468;5.814;2023-04-01T23:45:57;7.25;;;6.55;;
60243;SDS011;46106;51.468;5.814;2023-04-01T23:48:28;9.80;;;7.07;;
60243;SDS011;46106;51.468;5.814;2023-04-01T23:50:57;7.38;;;6.55;;
60243;SDS011;46106;51.468;5.814;2023-04-01T23:53:24;6.15;;;5.38;;
60243;SDS011;46106;51.468;5.814;2023-04-01T23:55:51;7.07;;;5.70;;
60243;SDS011;46106;51.468;5.814;2023-04-01T23:58:25;6.30;;;5.53;;
